createdAt,value
2017-03-01T10:21:04.667Z,42.17
2017-03-01T10:21:45.147Z,45.47
2017-03-01T10:22:25.626Z,48.75
2017-03-01T10:23:06.151Z,50.27
2017-03-01T10:23:46.600Z,50.82
2017-03-01T10:24:27.082Z,52.92
2017-03-01T10:25:07.567Z,53.3
2017-03-01T10:25:48.016Z,54.15
2017-03-01T10:27:45.652Z,55.49
2017-03-01T10:28:26.161Z,54.72
2017-03-01T10:29:06.667Z,54.15
2017-03-01T10:29:47.154Z,54.25
2017-03-01T10:30:27.622Z,55.54
2017-03-01T10:31:08.094Z,50.63
2017-03-01T10:31:48.544Z,47.97
2017-03-01T10:32:29.001Z,46.54
2017-03-01T10:33:09.457Z,46.8
2017-03-01T10:33:49.908Z,48.35
2017-03-01T10:34:30.380Z,47.49
2017-03-01T10:35:10.832Z,46.92
2017-03-01T10:35:51.295Z,47.2
2017-03-01T10:38:04.060Z,47.63
2017-03-01T10:38:44.458Z,48.78
2017-03-01T10:39:25.318Z,49.26
2017-03-01T10:40:05.768Z,49.92
2017-03-01T10:40:46.184Z,50.94
2017-03-01T10:41:26.643Z,51.06
2017-03-01T10:42:07.090Z,50.46
2017-03-01T10:42:47.571Z,51.16
2017-03-01T10:43:28.074Z,50.46
2017-03-01T10:45:25.714Z,50.97
2017-03-01T10:46:06.199Z,51.54
2017-03-01T10:46:46.696Z,50.4
2017-03-01T10:47:27.128Z,49.73
2017-03-01T10:48:07.572Z,49.35
2017-03-01T10:48:48.020Z,49.76
2017-03-01T10:49:28.487Z,49.95
2017-03-01T10:50:08.930Z,49.06
2017-03-01T10:50:49.406Z,49.54
2017-03-01T10:51:29.865Z,49.26
2017-03-01T10:52:10.295Z,49.54
2017-03-01T10:52:50.754Z,48.71
2017-03-01T10:53:31.242Z,48.78
2017-03-01T10:54:11.805Z,49.54
2017-03-01T10:54:52.326Z,48.97
2017-03-01T10:55:32.764Z,48.99
2017-03-01T10:56:13.237Z,48.04
2017-03-01T10:56:53.681Z,49.08
2017-03-01T10:57:34.122Z,48.42
2017-03-01T10:58:14.602Z,47.94
2017-03-01T10:58:54.997Z,47.85
2017-03-01T10:59:35.465Z,47.47
2017-03-01T11:00:15.936Z,47.47
2017-03-01T11:00:56.377Z,47.18
2017-03-01T11:01:36.811Z,47.06
2017-03-01T11:02:17.293Z,47.73
2017-03-01T11:02:57.744Z,48.02
2017-03-01T11:03:38.209Z,48.47
2017-03-01T11:04:18.642Z,49.44
2017-03-01T11:04:59.111Z,49.63
2017-03-01T11:05:39.632Z,49.35
2017-03-01T11:06:20.039Z,48.68
2017-03-01T11:07:00.509Z,48.8
2017-03-01T11:07:40.960Z,47.94
2017-03-01T11:08:21.418Z,47.28
2017-03-01T11:09:01.876Z,46.89
2017-03-01T11:09:42.337Z,46.61
2017-03-01T11:10:22.856Z,46.8
2017-03-01T11:11:03.362Z,46.51
2017-03-01T11:11:43.980Z,46.51
2017-03-01T11:12:24.463Z,46.61
2017-03-01T11:13:04.920Z,46.32
2017-03-01T11:13:45.377Z,46.7
2017-03-01T11:14:25.840Z,47.18
2017-03-01T11:15:06.315Z,47.18
2017-03-01T11:15:46.752Z,46.7
2017-03-01T11:16:27.250Z,46.8
2017-03-01T11:17:07.684Z,46.8
2017-03-01T11:17:48.191Z,47.16
2017-03-01T11:18:28.679Z,48.02
2017-03-01T11:19:09.152Z,48.37
2017-03-01T11:19:49.645Z,48.66
2017-03-01T11:20:30.162Z,50.09
2017-03-01T11:21:10.610Z,50.37
2017-03-01T11:21:51.111Z,50.25
2017-03-01T11:22:31.547Z,51.1
2017-03-01T11:23:11.993Z,51.78
2017-03-01T11:23:52.417Z,52.34
2017-03-01T11:24:32.827Z,52.92
2017-03-01T11:25:13.233Z,53.39
2017-03-01T11:25:53.670Z,53.3
2017-03-01T11:26:34.076Z,54.35
2017-03-01T11:27:14.498Z,54.35
2017-03-01T11:27:54.902Z,54.06
2017-03-01T11:28:35.417Z,54.15
2017-03-01T11:29:15.856Z,54.15
2017-03-01T11:29:56.299Z,53.96
2017-03-01T11:30:36.727Z,54.25
2017-03-01T11:31:17.192Z,53.39
2017-03-01T11:31:57.630Z,53.13
2017-03-01T11:32:38.106Z,53.61
2017-03-01T11:33:18.600Z,53.99
2017-03-01T11:33:59.098Z,54.37
2017-03-01T11:34:39.588Z,56.34
2017-03-01T11:35:20.142Z,57.1
2017-03-01T11:36:00.597Z,57.29
2017-03-01T11:36:41.134Z,59.39
2017-03-01T11:37:21.689Z,59.96
2017-03-01T11:39:19.310Z,60.15
2017-03-01T11:39:59.798Z,60.53
2017-03-01T11:40:40.272Z,60.15
2017-03-01T11:41:20.760Z,60.44
2017-03-01T11:42:01.231Z,60.34
2017-03-01T11:42:41.717Z,59.96
2017-03-01T11:43:22.421Z,59.86
2017-03-01T11:44:02.923Z,59.1
2017-03-01T11:44:43.400Z,59.51
2017-03-01T11:45:23.887Z,57.54
2017-03-01T11:46:04.367Z,57.45
2017-03-01T11:46:44.843Z,54.97
2017-03-01T11:47:25.362Z,54.88
2017-03-01T11:48:05.868Z,54.68
2017-03-01T11:48:46.335Z,54.47
2017-03-01T11:49:26.819Z,54.66
2017-03-01T11:50:07.314Z,55.51
2017-03-01T11:50:47.791Z,54.75
2017-03-01T11:51:28.286Z,54.47
2017-03-01T11:52:08.772Z,53.99
2017-03-01T11:52:49.260Z,53.89
2017-03-01T11:53:29.726Z,53.32
2017-03-01T11:54:10.184Z,53.13
2017-03-01T11:54:50.664Z,52.59
2017-03-01T11:55:31.156Z,51.16
2017-03-01T11:56:11.648Z,50.42
2017-03-01T11:56:52.124Z,48.8
2017-03-01T11:57:32.619Z,48.8
2017-03-01T11:58:13.090Z,49.56
2017-03-01T11:58:53.555Z,47.97
2017-03-01T11:59:34.075Z,46.94
2017-03-01T12:00:14.551Z,44.51
2017-03-01T12:00:55.070Z,41.66
2017-03-01T12:01:35.615Z,40.25
2017-03-01T12:02:16.101Z,40.4
2017-03-01T12:02:56.583Z,40.63
2017-03-01T12:03:37.081Z,39.1
2017-03-01T12:04:17.566Z,39.27
2017-03-01T12:04:58.077Z,40.3
2017-03-01T12:05:38.557Z,40.78
2017-03-01T12:06:19.075Z,39.83
2017-03-01T12:06:59.543Z,40.3
2017-03-01T12:07:40.061Z,40.42
2017-03-01T12:08:20.554Z,40.4
2017-03-01T12:09:01.024Z,41.05
2017-03-01T12:09:41.495Z,41.62
2017-03-01T12:10:22.005Z,40.88
2017-03-01T12:11:02.507Z,41.35
2017-03-01T12:11:42.977Z,40.86
2017-03-01T12:12:23.460Z,42.36
2017-03-01T12:13:03.930Z,44.06
2017-03-01T12:13:44.428Z,44.92
2017-03-01T12:14:24.932Z,45.39
2017-03-01T12:15:05.404Z,45.78
2017-03-01T12:15:45.893Z,46.23
2017-03-01T12:16:26.407Z,46.8
2017-03-01T12:17:06.949Z,46.61
2017-03-01T12:17:47.430Z,46.54
2017-03-01T12:18:27.918Z,45.68
2017-03-01T12:19:08.418Z,46.42
2017-03-01T12:19:48.918Z,47.37
2017-03-01T12:20:29.393Z,48.02
2017-03-01T12:21:09.880Z,49.35
2017-03-01T12:21:50.336Z,49.92
2017-03-01T12:22:30.844Z,50.49
2017-03-01T12:23:11.335Z,49.54
2017-03-01T12:23:51.829Z,50.56
2017-03-01T12:24:32.283Z,49.82
2017-03-01T12:25:12.742Z,50.11
2017-03-01T12:25:53.201Z,49.44
2017-03-01T12:26:33.695Z,49.54
2017-03-01T12:27:14.177Z,49.16
2017-03-01T12:27:55.607Z,49.44
2017-03-01T12:28:36.132Z,49.35
2017-03-01T12:29:16.631Z,49.71
2017-03-01T12:29:57.119Z,50.27
2017-03-01T12:30:37.587Z,51.04
2017-03-01T12:31:18.061Z,50.94
2017-03-01T12:31:58.587Z,51.51
2017-03-01T12:32:39.078Z,51.3
2017-03-01T12:33:19.516Z,52.06
2017-03-01T12:33:59.933Z,52.18
2017-03-01T12:35:47.363Z,51.14
2017-03-01T12:36:27.811Z,51.14
2017-03-01T12:37:08.387Z,50.85
2017-03-01T12:37:48.781Z,51.23
2017-03-01T12:38:29.260Z,51.51
2017-03-01T12:39:09.742Z,50.56
2017-03-01T12:39:50.257Z,51.51
2017-03-01T12:40:30.742Z,50.66
2017-03-01T12:41:11.255Z,50.59
2017-03-01T12:41:51.771Z,50.21
2017-03-01T12:42:33.106Z,50.27
2017-03-01T12:43:13.622Z,50.56
2017-03-01T12:43:54.099Z,50.75
2017-03-01T12:44:34.601Z,50.75
2017-03-01T12:45:15.085Z,50.94
2017-03-01T12:45:55.535Z,50.94
2017-03-01T12:46:36.012Z,51.06
2017-03-01T12:47:16.504Z,51.06
2017-03-01T12:47:56.989Z,50.4
2017-03-01T12:48:37.492Z,50.37
2017-03-01T12:49:17.965Z,50.27
2017-03-01T12:49:58.434Z,50.37
2017-03-01T12:50:38.891Z,50.37
2017-03-01T12:51:19.352Z,50.27
2017-03-01T12:51:59.811Z,50.46
2017-03-01T12:52:40.297Z,50.46
2017-03-01T12:53:20.773Z,49.82
2017-03-01T12:54:01.257Z,49.06
2017-03-01T12:54:41.705Z,49.06
2017-03-01T12:55:22.180Z,49.16
2017-03-01T12:56:02.664Z,49.16
2017-03-01T12:56:43.137Z,48.3
2017-03-01T12:57:23.624Z,48.75
2017-03-01T12:58:04.097Z,49.13
2017-03-01T12:58:44.551Z,49.71
2017-03-01T12:59:25.027Z,49.63
2017-03-01T13:00:05.526Z,49.54
2017-03-01T13:00:45.954Z,49.44
2017-03-01T13:01:26.467Z,49.63
2017-03-01T13:02:06.944Z,49.63
2017-03-01T13:04:24.847Z,49.73
2017-03-01T13:05:05.286Z,49.63
2017-03-01T13:05:45.774Z,49.44
2017-03-01T13:06:26.191Z,49.54
2017-03-01T13:07:06.688Z,49.8
2017-03-01T13:07:47.192Z,49.9
2017-03-01T13:08:27.651Z,50.46
2017-03-01T13:09:08.194Z,50.46
2017-03-01T13:09:48.582Z,51.14
2017-03-01T13:11:41.131Z,50.4
2017-03-01T13:12:21.523Z,50.3
2017-03-01T13:13:01.959Z,50.27
2017-03-01T13:13:42.353Z,51.23
2017-03-01T13:14:22.762Z,51.14
2017-03-01T13:15:03.189Z,50.56
2017-03-01T13:15:43.589Z,50.66
2017-03-01T13:16:24.029Z,50.66
2017-03-01T13:17:04.432Z,50.85
2017-03-01T13:17:44.852Z,50.94
2017-03-01T13:18:25.357Z,51.8
2017-03-01T13:19:05.736Z,51.51
2017-03-01T13:20:53.161Z,51.51
2017-03-01T13:21:33.578Z,51.61
2017-03-01T13:22:14.026Z,51.8
2017-03-01T13:22:54.468Z,51.61
2017-03-01T13:23:34.920Z,51.51
2017-03-01T13:24:15.364Z,51.7
2017-03-01T13:24:55.823Z,51.51
2017-03-01T13:25:36.240Z,51.23
2017-03-01T13:26:16.706Z,51.14
2017-03-01T13:26:57.083Z,50.85
2017-03-01T13:27:37.532Z,51.51
2017-03-01T13:28:17.948Z,51.14
2017-03-01T13:28:58.385Z,51.61
2017-03-01T13:29:38.784Z,51.51
2017-03-01T13:30:19.158Z,50.75
2017-03-01T13:30:59.563Z,51.04
2017-03-01T13:31:39.977Z,51.23
2017-03-01T13:32:20.374Z,50.37
2017-03-01T13:33:00.810Z,50.75
2017-03-01T13:34:58.352Z,51.16
2017-03-01T13:35:38.783Z,50.59
2017-03-01T13:36:19.249Z,49.92
2017-03-01T13:36:59.658Z,49.73
2017-03-01T13:37:40.118Z,50.61
2017-03-01T13:38:20.584Z,48.25
2017-03-01T13:39:01.046Z,47.47
2017-03-01T13:39:41.486Z,48.21
2017-03-01T13:40:21.920Z,49.06
2017-03-01T13:41:03.272Z,49.06
2017-03-01T13:41:43.718Z,49.06
2017-03-01T13:42:24.151Z,49.63
2017-03-01T13:43:04.680Z,49.82
2017-03-01T13:43:45.186Z,49.54
2017-03-01T13:44:25.624Z,50.49
2017-03-01T13:45:06.076Z,50.01
2017-03-01T13:45:46.523Z,49.73
2017-03-01T13:46:26.983Z,49.95
2017-03-01T13:47:07.416Z,50.21
2017-03-01T13:47:47.854Z,49.76
2017-03-01T13:48:28.296Z,50.23
2017-03-01T13:49:08.735Z,50.04
2017-03-01T13:49:49.165Z,50.04
2017-03-01T13:50:29.606Z,49.66
2017-03-01T13:51:10.058Z,49.56
2017-03-01T13:51:50.497Z,48.9
2017-03-01T13:52:30.945Z,49.28
2017-03-01T13:53:11.395Z,49.63
2017-03-01T13:53:51.832Z,49.08
2017-03-01T13:54:32.273Z,49.63
2017-03-01T13:55:12.691Z,50.01
2017-03-01T13:55:53.088Z,49.92
2017-03-01T13:56:33.510Z,49.73
2017-03-01T13:57:14.003Z,50.21
2017-03-01T13:57:54.433Z,50.3
2017-03-01T13:58:34.883Z,49.54
2017-03-01T13:59:15.316Z,50.3
2017-03-01T13:59:55.772Z,50.01
2017-03-01T14:00:36.294Z,50.21
2017-03-01T14:01:16.734Z,50.49
2017-03-01T14:01:57.176Z,50.3
2017-03-01T14:02:37.633Z,50.49
2017-03-01T14:03:18.127Z,50.59
2017-03-01T14:03:58.548Z,50.59
2017-03-01T14:04:38.989Z,50.4
2017-03-01T14:05:19.436Z,50.59
2017-03-01T14:05:59.910Z,50.56
2017-03-01T14:06:40.359Z,50.68
2017-03-01T14:07:20.816Z,49.99
2017-03-01T14:08:01.253Z,50.66
2017-03-01T14:08:41.691Z,50.37
2017-03-01T14:09:22.118Z,50.18
2017-03-01T14:10:02.541Z,50.66
2017-03-01T14:10:42.960Z,50.66
2017-03-01T14:11:23.371Z,51.51
2017-03-01T14:12:03.791Z,51.14
2017-03-01T14:12:44.196Z,51.51
2017-03-01T14:13:24.636Z,50.75
2017-03-01T14:14:05.067Z,50.97
2017-03-01T14:14:45.546Z,50.18
2017-03-01T14:15:26.003Z,50.66
2017-03-01T14:16:06.444Z,50.85
2017-03-01T14:16:46.894Z,51.61
2017-03-01T14:17:27.324Z,51.7
2017-03-01T14:18:07.774Z,52.09
2017-03-01T14:18:48.256Z,52.28
2017-03-01T14:19:28.754Z,52.84
2017-03-01T14:20:09.219Z,53.61
2017-03-01T14:20:49.677Z,54.27
2017-03-01T14:21:30.119Z,54.85
2017-03-01T14:22:10.568Z,54.94
2017-03-01T14:22:51.044Z,55.32
2017-03-01T14:23:31.505Z,56.18
2017-03-01T14:24:11.973Z,56.27
2017-03-01T14:24:52.385Z,56.85
2017-03-01T14:25:32.831Z,57.32
2017-03-01T14:26:13.251Z,57.89
2017-03-01T14:26:53.712Z,58.84
2017-03-01T14:27:34.156Z,58.94
2017-03-01T14:28:14.584Z,60.27
2017-03-01T14:28:55.012Z,60.08
2017-03-01T14:29:35.488Z,61.42
2017-03-01T14:30:15.942Z,61.1
2017-03-01T14:30:56.368Z,61.58
2017-03-01T14:31:36.799Z,62.72
2017-03-01T14:32:17.244Z,63.48
2017-03-01T14:32:57.700Z,63.48
2017-03-01T14:33:38.132Z,63.48
2017-03-01T14:34:18.548Z,64.43
2017-03-01T14:34:59.771Z,64.72
2017-03-01T14:35:40.175Z,65.38
2017-03-01T14:36:20.594Z,65.67
2017-03-01T14:37:01.026Z,65.95
2017-03-01T14:37:41.428Z,66.14
2017-03-01T14:38:21.828Z,65.77
2017-03-01T14:39:02.228Z,66.43
2017-03-01T14:39:42.693Z,66.91
2017-03-01T14:40:23.077Z,66.43
2017-03-01T14:41:03.467Z,66.81
2017-03-01T14:41:43.893Z,67
2017-03-01T14:42:24.299Z,66.43
2017-03-01T14:43:04.689Z,66.97
2017-03-01T14:43:45.110Z,67.82
2017-03-01T14:44:25.538Z,68.68
2017-03-01T14:45:05.962Z,68.59
2017-03-01T14:45:46.410Z,68.77
2017-03-01T14:46:27.381Z,69.44
2017-03-01T14:47:07.811Z,70.2
2017-03-01T14:47:48.224Z,69.92
2017-03-01T14:48:28.646Z,70.01
2017-03-01T14:49:09.098Z,70.49
2017-03-01T14:49:49.541Z,70.39
2017-03-01T14:50:29.986Z,70.58
2017-03-01T14:51:10.406Z,71.15
2017-03-01T14:51:50.864Z,71.82
2017-03-01T14:52:31.309Z,72.39
2017-03-01T14:53:11.748Z,73.15
2017-03-01T14:53:52.212Z,73.25
2017-03-01T14:54:32.648Z,74.48
2017-03-01T14:55:13.066Z,74.26
2017-03-01T14:55:53.503Z,74.44
2017-03-01T14:56:33.936Z,74.96
2017-03-01T14:57:14.363Z,74.73
2017-03-01T14:57:54.802Z,75.11
2017-03-01T14:58:35.237Z,75.78
2017-03-01T14:59:15.709Z,76.16
2017-03-01T14:59:56.175Z,76.06
2017-03-01T15:00:36.619Z,76.82
2017-03-01T15:01:17.064Z,77.39
2017-03-01T15:01:57.488Z,79.01
2017-03-01T15:02:37.885Z,78.82
2017-03-01T15:03:18.267Z,79.3
2017-03-01T15:03:58.709Z,78.82
2017-03-01T15:04:39.150Z,78.72
2017-03-01T15:05:19.614Z,79.49
2017-03-01T15:06:00.123Z,79.77
2017-03-01T15:06:40.547Z,80.82
2017-03-01T15:07:21.003Z,79.96
2017-03-01T15:08:02.036Z,80.72
2017-03-01T15:08:41.904Z,81.1
2017-03-01T15:09:22.363Z,80.91
2017-03-01T15:10:02.818Z,80.91
2017-03-01T15:10:43.275Z,80.4
2017-03-01T15:11:23.733Z,80.58
2017-03-01T15:12:04.194Z,81.16
2017-03-01T15:12:44.648Z,81.82
2017-03-01T15:13:25.099Z,82.1
2017-03-01T15:14:05.528Z,82.01
2017-03-01T15:14:45.929Z,81.82
2017-03-01T15:15:26.389Z,82.49
2017-03-01T15:16:06.806Z,82.24
2017-03-01T15:16:47.261Z,82.15
2017-03-01T15:17:27.712Z,82.71
2017-03-01T15:18:08.175Z,82.71
2017-03-01T15:18:48.587Z,83
2017-03-01T15:19:29.042Z,83.19
2017-03-01T15:20:09.532Z,83.58
2017-03-01T15:20:49.989Z,83.95
2017-03-01T15:21:30.453Z,83.39
2017-03-01T15:22:10.889Z,83.39
2017-03-01T15:22:51.378Z,83.82
2017-03-01T15:23:31.831Z,84.05
2017-03-01T15:24:12.284Z,84.1
2017-03-01T15:24:52.729Z,83.95
2017-03-01T15:25:33.169Z,84.01
2017-03-01T15:26:13.609Z,84.05
2017-03-01T15:26:54.072Z,84.05
2017-03-01T15:27:34.531Z,83.44
2017-03-01T15:28:14.971Z,84.1
2017-03-01T15:28:55.391Z,84.29
2017-03-01T15:29:35.834Z,84.72
2017-03-01T15:30:16.279Z,84.62
2017-03-01T15:30:56.722Z,84.2
2017-03-01T15:31:37.174Z,84.2
2017-03-01T15:32:17.634Z,84.24
2017-03-01T15:32:58.064Z,84.43
2017-03-01T15:33:38.514Z,83.67
2017-03-01T15:34:18.996Z,84.58
2017-03-01T15:36:06.469Z,84.29
2017-03-01T15:36:46.900Z,84.01
2017-03-01T15:37:27.323Z,84.39
2017-03-01T15:38:07.733Z,84.77
2017-03-01T15:38:48.203Z,85.15
2017-03-01T15:39:28.701Z,84.67
2017-03-01T15:40:09.219Z,84.1
2017-03-01T15:40:49.602Z,85.1
2017-03-01T15:41:29.989Z,84.01
2017-03-01T15:42:10.529Z,84.01
2017-03-01T15:42:50.909Z,83.62
2017-03-01T15:43:31.334Z,84.77
2017-03-01T15:44:11.741Z,85.53
2017-03-01T15:44:52.261Z,85.62
2017-03-01T15:45:32.723Z,85.72
2017-03-01T15:46:13.287Z,85.24
2017-03-01T15:46:53.713Z,85.43
2017-03-01T15:47:34.121Z,85.43
2017-03-01T15:48:14.578Z,85.72
2017-03-01T15:48:54.993Z,85.62
2017-03-01T15:49:35.463Z,85.62
2017-03-01T15:50:15.868Z,85.43
2017-03-01T15:50:56.272Z,85.34
2017-03-01T15:51:36.674Z,85.62
2017-03-01T15:52:17.112Z,85.81
2017-03-01T15:52:57.526Z,85.72
2017-03-01T15:53:37.955Z,85.15
2017-03-01T15:54:18.374Z,85.72
2017-03-01T15:54:58.759Z,85.53
2017-03-01T15:55:39.242Z,85.81
2017-03-01T15:56:19.690Z,85.76
2017-03-01T15:57:00.111Z,85.05
2017-03-01T15:57:40.495Z,84.95
2017-03-01T15:58:20.946Z,84.67
2017-03-01T15:59:01.505Z,84.86
2017-03-01T15:59:42.181Z,84.86
2017-03-01T16:00:22.605Z,84.39
2017-03-01T16:01:02.990Z,84.95
2017-03-01T16:01:43.442Z,84.95
2017-03-01T16:02:23.887Z,84.67
2017-03-01T16:03:04.309Z,85.53
2017-03-01T16:03:44.732Z,85.62
2017-03-01T16:05:57.372Z,85.05
2017-03-01T16:06:37.805Z,84.77
2017-03-01T16:07:18.242Z,84.62
2017-03-01T16:07:58.692Z,85.24
2017-03-01T16:08:39.122Z,84.67
2017-03-01T16:09:19.554Z,84.67
2017-03-01T16:09:59.971Z,84.95
2017-03-01T16:10:40.407Z,85.66
2017-03-01T16:11:20.837Z,85.43
2017-03-01T16:12:01.273Z,85.15
2017-03-01T16:12:41.725Z,84.86
2017-03-01T16:13:22.187Z,84.95
2017-03-01T16:14:02.607Z,84.95
2017-03-01T16:14:43.040Z,85.05
2017-03-01T16:15:23.474Z,84.95
2017-03-01T16:16:03.920Z,84.01
2017-03-01T16:16:44.373Z,83.44
2017-03-01T16:17:24.835Z,83.82
2017-03-01T16:18:05.260Z,84.58
2017-03-01T16:18:45.685Z,83.91
2017-03-01T16:19:26.117Z,83.62
2017-03-01T16:20:06.531Z,83.62
2017-03-01T16:20:46.943Z,83.91
2017-03-01T16:21:27.397Z,84.58
2017-03-01T16:22:08.307Z,84.95
2017-03-01T16:22:48.719Z,84.95
2017-03-01T16:23:29.195Z,85.47
2017-03-01T16:24:09.711Z,84.77
2017-03-01T16:24:50.298Z,85.24
2017-03-01T16:25:30.734Z,85.34
2017-03-01T16:26:11.243Z,84.67
2017-03-01T16:26:51.693Z,84.95
2017-03-01T16:27:32.119Z,84.95
2017-03-01T16:28:12.586Z,84.77
2017-03-01T16:28:53.017Z,84.48
2017-03-01T16:29:33.430Z,84.58
2017-03-01T16:30:13.852Z,84.58
2017-03-01T16:30:54.292Z,84.86
2017-03-01T16:31:34.749Z,84.29
2017-03-01T16:32:15.166Z,84.95
2017-03-01T16:32:55.606Z,85.72
2017-03-01T16:33:36.020Z,85.15
2017-03-01T16:34:16.432Z,84.86
2017-03-01T16:34:56.837Z,84.95
2017-03-01T16:35:37.241Z,84.77
2017-03-01T16:36:17.661Z,84.95
2017-03-01T16:36:58.080Z,84.86
2017-03-01T16:37:38.481Z,85.53
2017-03-01T16:39:36.130Z,84.95
2017-03-01T16:40:16.533Z,84.77
2017-03-01T16:40:56.920Z,84.58
2017-03-01T16:41:37.327Z,84.48
2017-03-01T16:42:17.757Z,84.95
2017-03-01T16:42:58.137Z,84.95
2017-03-01T16:43:38.531Z,84.86
2017-03-01T16:44:18.985Z,84.77
2017-03-01T16:46:16.559Z,84.86
2017-03-01T16:46:56.980Z,84.77
2017-03-01T16:47:37.413Z,84.95
2017-03-01T16:48:17.846Z,84.86
2017-03-01T16:48:58.232Z,85.15
2017-03-01T16:49:38.640Z,84.39
2017-03-01T16:50:19.042Z,84.39
2017-03-01T16:50:59.415Z,85.05
2017-03-01T16:51:39.804Z,84.86
2017-03-01T16:53:57.532Z,84.58
2017-03-01T16:54:37.979Z,84.77
2017-03-01T16:55:18.395Z,84.1
2017-03-01T16:55:58.849Z,84.29
2017-03-01T16:56:39.300Z,84.58
2017-03-01T16:57:19.719Z,84.77
2017-03-01T16:58:00.772Z,84.95
2017-03-01T16:58:40.802Z,85.15
2017-03-01T16:59:21.225Z,86
2017-03-01T17:00:01.617Z,85.91
2017-03-01T17:00:42.019Z,84.95
2017-03-01T17:01:22.382Z,85.15
2017-03-01T17:02:02.796Z,84.58
2017-03-01T17:02:43.219Z,84.58
2017-03-01T17:03:23.584Z,84.48
2017-03-01T17:04:04.008Z,84.1
2017-03-01T17:04:44.403Z,84.29
2017-03-01T17:05:24.860Z,85.05
2017-03-01T17:06:05.300Z,84.39
2017-03-01T17:06:45.698Z,83.91
2017-03-01T17:07:26.094Z,84.48
2017-03-01T17:08:06.515Z,84.1
2017-03-01T17:08:46.911Z,83.91
2017-03-01T17:09:27.356Z,83.91
2017-03-01T17:10:07.794Z,83.72
2017-03-01T17:10:48.186Z,83.15
2017-03-01T17:11:28.594Z,83.25
2017-03-01T17:12:09.018Z,82.87
2017-03-01T17:12:49.428Z,82.58
2017-03-01T17:13:29.820Z,81.54
2017-03-01T17:14:10.219Z,81.25
2017-03-01T17:14:50.636Z,81.16
2017-03-01T17:15:31.020Z,81.35
2017-03-01T17:16:11.420Z,81.06
2017-03-01T17:16:51.822Z,81.35
2017-03-01T17:17:32.229Z,81.35
2017-03-01T17:18:12.634Z,80.58
2017-03-01T17:18:53.063Z,80.68
2017-03-01T17:19:33.455Z,81.16
2017-03-01T17:20:13.883Z,81.25
2017-03-01T17:20:54.273Z,81.35
2017-03-01T17:23:12.067Z,81.92
2017-03-01T17:23:52.487Z,81.06
2017-03-01T17:24:32.936Z,81.06
2017-03-01T17:25:13.404Z,81.25
2017-03-01T17:25:53.838Z,80.4
2017-03-01T17:26:34.256Z,80.02
2017-03-01T17:27:14.681Z,79.54
2017-03-01T17:27:55.192Z,79.83
2017-03-01T17:28:35.547Z,79.35
2017-03-01T17:29:16.010Z,80.3
2017-03-01T17:29:56.429Z,80.49
2017-03-01T17:30:36.853Z,80.02
2017-03-01T17:31:17.312Z,79.92
2017-03-01T17:31:57.744Z,80.02
2017-03-01T17:32:38.160Z,80.02
2017-03-01T17:33:18.600Z,80.49
2017-03-01T17:33:59.036Z,80.21
2017-03-01T17:34:39.458Z,81.35
2017-03-01T17:35:19.885Z,81.16
2017-03-01T17:36:00.329Z,80.58
2017-03-01T17:36:40.760Z,80.77
2017-03-01T17:37:21.212Z,80.3
2017-03-01T17:38:01.684Z,80.3
2017-03-01T17:38:42.064Z,79.83
2017-03-01T17:39:22.504Z,80.11
2017-03-01T17:40:02.998Z,80.4
2017-03-01T17:40:43.377Z,79.83
2017-03-01T17:41:23.810Z,79.92
2017-03-01T17:42:04.254Z,80.11
2017-03-01T17:42:44.690Z,80.21
2017-03-01T17:43:25.145Z,80.77
2017-03-01T17:44:05.590Z,79.63
2017-03-01T17:44:46.030Z,78.78
2017-03-01T17:45:26.461Z,79.16
2017-03-01T17:46:06.909Z,79.73
2017-03-01T17:46:47.336Z,79.92
2017-03-01T17:47:27.757Z,79.83
2017-03-01T17:48:08.213Z,79.54
2017-03-01T17:48:48.629Z,78.69
2017-03-01T17:49:29.065Z,78.4
2017-03-01T17:50:09.504Z,78.69
2017-03-01T17:50:49.945Z,78.02
2017-03-01T17:51:30.384Z,78.4
2017-03-01T17:52:10.821Z,78.02
2017-03-01T17:52:51.255Z,78.5
2017-03-01T17:53:31.759Z,79.25
2017-03-01T17:54:12.112Z,78.4
2017-03-01T17:54:52.548Z,78.3
2017-03-01T17:55:33.001Z,78.5
2017-03-01T17:56:13.442Z,78.59
2017-03-01T17:56:53.896Z,77.73
2017-03-01T17:57:34.349Z,78.21
2017-03-01T17:58:14.784Z,78.5
2017-03-01T17:58:55.235Z,78.11
2017-03-01T17:59:35.664Z,77.36
2017-03-01T18:00:16.105Z,78.11
2017-03-01T18:00:56.543Z,78.78
2017-03-01T18:01:36.985Z,78.69
2017-03-01T18:02:17.421Z,78.21
2017-03-01T18:02:57.850Z,78.11
2017-03-01T18:03:38.310Z,78.02
2017-03-01T18:04:18.746Z,78.02
2017-03-01T18:04:59.155Z,78.3
2017-03-01T18:05:39.588Z,77.26
2017-03-01T18:06:20.043Z,76.5
2017-03-01T18:07:00.452Z,77.26
2017-03-01T18:07:40.902Z,76.31
2017-03-01T18:08:21.316Z,75.64
2017-03-01T18:09:01.760Z,76.69
2017-03-01T18:09:42.179Z,76.03
2017-03-01T18:10:22.571Z,76.5
2017-03-01T18:11:03.014Z,75.84
2017-03-01T18:11:43.468Z,76.12
2017-03-01T18:12:23.911Z,76.59
2017-03-01T18:13:04.337Z,76.5
2017-03-01T18:13:44.760Z,76.69
2017-03-01T18:14:25.184Z,75.93
2017-03-01T18:15:05.616Z,75.26
2017-03-01T18:15:46.023Z,75.64
2017-03-01T18:16:26.431Z,75.17
2017-03-01T18:17:06.852Z,74.98
2017-03-01T18:17:47.261Z,76.59
2017-03-01T18:18:27.636Z,76.88
2017-03-01T18:19:08.061Z,76.4
2017-03-01T18:19:48.444Z,75.93
2017-03-01T18:20:28.862Z,76.03
2017-03-01T18:21:09.291Z,76.03
2017-03-01T18:21:49.728Z,76.59
2017-03-01T18:22:30.186Z,75.74
2017-03-01T18:23:10.633Z,75.84
2017-03-01T18:23:51.079Z,76.78
2017-03-01T18:24:31.535Z,76.75
2017-03-01T18:25:11.951Z,76.5
2017-03-01T18:25:52.390Z,75.84
2017-03-01T18:26:32.823Z,76.59
2017-03-01T18:27:13.292Z,76.21
2017-03-01T18:27:53.759Z,76.03
2017-03-01T18:28:34.177Z,76.21
2017-03-01T18:29:14.587Z,76.78
2017-03-01T18:29:55.038Z,76.03
2017-03-01T18:30:35.473Z,76.59
2017-03-01T18:31:15.879Z,74.69
2017-03-01T18:31:56.287Z,75.26
2017-03-01T18:32:36.705Z,75.74
2017-03-01T18:33:17.082Z,76.12
2017-03-01T18:33:57.511Z,76.18
2017-03-01T18:34:37.987Z,75.55
2017-03-01T18:35:18.400Z,75.89
2017-03-01T18:35:58.825Z,75.89
2017-03-01T18:36:39.237Z,76.21
2017-03-01T18:37:19.640Z,76.08
2017-03-01T18:38:00.047Z,76.75
2017-03-01T18:38:40.462Z,77.31
2017-03-01T18:39:20.877Z,76.93
2017-03-01T18:40:01.254Z,76.65
2017-03-01T18:40:41.674Z,77.03
2017-03-01T18:41:22.101Z,77.12
2017-03-01T18:42:02.538Z,77.41
2017-03-01T18:45:37.382Z,77.51
2017-03-01T18:46:17.823Z,77.79
2017-03-01T18:46:58.258Z,77.41
2017-03-01T18:47:38.707Z,78.08
2017-03-01T18:48:19.137Z,78.27
2017-03-01T18:48:59.568Z,79.22
2017-03-01T18:49:39.981Z,78.74
2017-03-01T18:50:20.402Z,77.98
2017-03-01T18:51:00.791Z,79.12
2017-03-01T18:51:41.190Z,78.83
2017-03-01T18:52:21.688Z,79.41
2017-03-01T18:53:02.106Z,79.22
2017-03-01T18:53:42.591Z,79.69
2017-03-01T18:54:23.066Z,80.16
2017-03-01T18:55:03.509Z,80.26
2017-03-01T18:55:43.955Z,79.97
2017-03-01T18:56:24.385Z,79.88
2017-03-01T18:57:04.825Z,80.74
2017-03-01T18:57:45.268Z,80.35
2017-03-01T18:58:25.712Z,80.26
2017-03-01T18:59:06.150Z,80.35
2017-03-01T18:59:46.593Z,80.35
2017-03-01T19:00:27.028Z,80.83
2017-03-01T19:01:07.439Z,81.12
2017-03-01T19:01:47.844Z,81.3
2017-03-01T19:02:28.261Z,80.64
2017-03-01T19:03:08.684Z,80.64
2017-03-01T19:03:49.138Z,80.35
2017-03-01T19:04:29.542Z,81.4
2017-03-01T19:05:10.005Z,82.07
2017-03-01T19:05:50.468Z,82.26
2017-03-01T19:06:30.893Z,82.54
2017-03-01T19:07:11.327Z,81.21
2017-03-01T19:07:51.737Z,81.97
2017-03-01T19:08:32.165Z,81.87
2017-03-01T19:09:12.616Z,81.87
2017-03-01T19:09:53.038Z,81.21
2017-03-01T19:10:33.471Z,81.12
2017-03-01T19:11:13.917Z,80.83
2017-03-01T19:11:54.344Z,81.02
2017-03-01T19:12:34.781Z,81.3
2017-03-01T19:13:15.220Z,81.59
2017-03-01T19:13:55.654Z,80.83
2017-03-01T19:14:36.088Z,80.83
2017-03-01T19:15:16.499Z,81.49
2017-03-01T19:15:56.932Z,81.59
2017-03-01T19:16:37.358Z,80.83
2017-03-01T19:17:17.782Z,81.68
2017-03-01T19:17:58.201Z,81.97
2017-03-01T19:20:15.957Z,81.21
2017-03-01T19:20:56.475Z,81.3
2017-03-01T19:21:36.914Z,81.21
2017-03-01T19:22:17.362Z,80.55
2017-03-01T19:22:57.794Z,81.21
2017-03-01T19:23:38.236Z,81.97
2017-03-01T19:24:18.677Z,81.12
2017-03-01T19:24:59.101Z,81.21
2017-03-01T19:25:39.548Z,81.4
2017-03-01T19:26:19.987Z,81.3
2017-03-01T19:27:00.423Z,81.97
2017-03-01T19:27:40.846Z,81.3
2017-03-01T19:28:21.276Z,80.74